PWSweather.com
Personal Weather Stations
Station Observations
WXGLH1124
Southern Oaks, Indianapolis, IN 46217

Southern OaksIndianapolis, IN 46217

Lat: 39.65113, Lon: -86.16866

Elevation: 720

Station Type: Vantage Pro2

High Low Average
Temperature 30.4°F-0.9°C 14.0°F-10.0°C 22.0°F-5.6°C
Dew Point 25.1°F-3.8°C 10.3°F-12.1°C 18.5°F-7.5°C
Winds 4.0 mph 6.4 kmh Calm Calm Calm ESECalm ESE
Wind Gusts 5.0 mph8.0 kmh -- 1.0 mph1.6 kmh
Humidity 90% 79% 86%
Pressure 30.39 in1029.1 mb 30.29 in1025.7 mb -
Precipitation 0.00 in0.0 mm - -
Hour Temp Dew Point Humidity Winds Wind Gusts Pressure Precip Precip Rate Daily Precip Total
12:00 AM 13.6°F-10.2°C 9.9°F-12.3°C 85% Calm Calm 2.0 mph3.2 kmh 30.38 in1028.8 mb 0.00 in0.0 mm 0.00 in0.0 mm 0.00 in0.0 mm
12:05 AM 13.6°F-10.2°C 9.9°F-12.3°C 85% Calm Calm 1.0 mph1.6 kmh 30.38 in1028.8 mb 0.00 in0.0 mm 0.00 in0.0 mm 0.00 in0.0 mm
12:10 AM 13.7°F-10.2°C 10.0°F-12.2°C 85% Calm Calm 3.0 mph4.8 kmh 30.38 in1028.8 mb 0.00 in0.0 mm 0.00 in0.0 mm 0.00 in0.0 mm
12:15 AM 13.7°F-10.2°C 10.0°F-12.2°C 85% 2.0 mph E3.2 kmh E 3.0 mph4.8 kmh 30.38 in1028.8 mb 0.00 in0.0 mm 0.00 in0.0 mm 0.00 in0.0 mm
12:20 AM 13.8°F-10.1°C 10.1°F-12.2°C 85% Calm Calm 1.0 mph1.6 kmh 30.38 in1028.8 mb 0.00 in0.0 mm 0.00 in0.0 mm 0.00 in0.0 mm
12:25 AM 13.9°F-10.1°C 10.2°F-12.1°C 85% Calm Calm 4.0 mph6.4 kmh 30.38 in1028.8 mb 0.00 in0.0 mm 0.00 in0.0 mm 0.00 in0.0 mm
12:30 AM 13.9°F-10.1°C 10.2°F-12.1°C 85% 2.0 mph E3.2 kmh E 6.0 mph9.7 kmh 30.39 in1029.1 mb 0.00 in0.0 mm 0.00 in0.0 mm 0.00 in0.0 mm
12:35 AM 14.0°F-10.0°C 10.3°F-12.1°C 85% 1.0 mph E1.6 kmh E 2.0 mph3.2 kmh 30.39 in1029.1 mb 0.00 in0.0 mm 0.00 in0.0 mm 0.00 in0.0 mm
12:40 AM 14.0°F-10.0°C 10.3°F-12.1°C 85% 3.0 mph E4.8 kmh E 3.0 mph4.8 kmh 30.39 in1029.1 mb 0.00 in0.0 mm 0.00 in0.0 mm 0.00 in0.0 mm
12:45 AM 14.0°F-10.0°C 10.3°F-12.1°C 85% 4.0 mph E6.4 kmh E 4.0 mph6.4 kmh 30.39 in1029.1 mb 0.00 in0.0 mm 0.00 in0.0 mm 0.00 in0.0 mm
12:50 AM 14.0°F-10.0°C 10.3°F-12.1°C 85% 1.0 mph ENE1.6 kmh ENE 3.0 mph4.8 kmh 30.39 in1029.1 mb 0.00 in0.0 mm 0.00 in0.0 mm 0.00 in0.0 mm
12:55 AM 14.0°F-10.0°C 10.3°F-12.1°C 85% Calm Calm 5.0 mph8.0 kmh 30.39 in1029.1 mb 0.00 in0.0 mm 0.00 in0.0 mm 0.00 in0.0 mm
01:00 AM 14.0°F-10.0°C 10.3°F-12.1°C 85% 2.0 mph NE3.2 kmh NE 4.0 mph6.4 kmh 30.39 in1029.1 mb 0.00 in0.0 mm 0.00 in0.0 mm 0.00 in0.0 mm
01:05 AM 14.1°F-9.9°C 10.7°F-11.8°C 86% Calm Calm 4.0 mph6.4 kmh 30.39 in1029.1 mb 0.00 in0.0 mm 0.00 in0.0 mm 0.00 in0.0 mm
01:10 AM 14.1°F-9.9°C 10.7°F-11.8°C 86% Calm Calm 3.0 mph4.8 kmh 30.39 in1029.1 mb 0.00 in0.0 mm 0.00 in0.0 mm 0.00 in0.0 mm
01:14 AM 14.1°F-9.9°C 10.7°F-11.8°C 86% 1.0 mph SSE1.6 kmh SSE 5.0 mph8.0 kmh 30.37 in1028.4 mb 0.00 in0.0 mm 0.00 in0.0 mm 0.00 in0.0 mm
01:20 AM 14.1°F-9.9°C 10.7°F-11.8°C 86% 2.0 mph ENE3.2 kmh ENE 3.0 mph4.8 kmh 30.38 in1028.8 mb 0.00 in0.0 mm 0.00 in0.0 mm 0.00 in0.0 mm
01:25 AM 14.2°F-9.9°C 10.8°F-11.8°C 86% 4.0 mph S6.4 kmh S 5.0 mph8.0 kmh 30.36 in1028.1 mb 0.00 in0.0 mm 0.00 in0.0 mm 0.00 in0.0 mm
01:30 AM 14.3°F-9.8°C 10.9°F-11.7°C 86% 2.0 mph NE3.2 kmh NE 3.0 mph4.8 kmh 30.37 in1028.4 mb 0.00 in0.0 mm 0.00 in0.0 mm 0.00 in0.0 mm
01:35 AM 14.3°F-9.8°C 10.9°F-11.7°C 86% 2.0 mph ESE3.2 kmh ESE 3.0 mph4.8 kmh 30.36 in1028.1 mb 0.00 in0.0 mm 0.00 in0.0 mm 0.00 in0.0 mm
01:40 AM 14.3°F-9.8°C 10.9°F-11.7°C 86% Calm Calm 2.0 mph3.2 kmh 30.37 in1028.4 mb 0.00 in0.0 mm 0.00 in0.0 mm 0.00 in0.0 mm
01:45 AM 14.4°F-9.8°C 11.0°F-11.7°C 86% Calm Calm 4.0 mph6.4 kmh 30.37 in1028.4 mb 0.00 in0.0 mm 0.00 in0.0 mm 0.00 in0.0 mm
01:50 AM 14.5°F-9.7°C 11.1°F-11.6°C 86% 1.0 mph SSE1.6 kmh SSE 4.0 mph6.4 kmh 30.37 in1028.4 mb 0.00 in0.0 mm 0.00 in0.0 mm 0.00 in0.0 mm
01:54 AM 14.6°F-9.7°C 11.2°F-11.6°C 86% Calm Calm 3.0 mph4.8 kmh 30.37 in1028.4 mb 0.00 in0.0 mm 0.00 in0.0 mm 0.00 in0.0 mm
02:00 AM 14.6°F-9.7°C 11.2°F-11.6°C 86% Calm Calm 2.0 mph3.2 kmh 30.37 in1028.4 mb 0.00 in0.0 mm 0.00 in0.0 mm 0.00 in0.0 mm
02:05 AM 14.7°F-9.6°C 11.5°F-11.4°C 87% 1.0 mph SE1.6 kmh SE 2.0 mph3.2 kmh 30.36 in1028.1 mb 0.00 in0.0 mm 0.00 in0.0 mm 0.00 in0.0 mm
02:09 AM 14.8°F-9.6°C 11.6°F-11.3°C 87% Calm Calm 2.0 mph3.2 kmh 30.36 in1028.1 mb 0.00 in0.0 mm 0.00 in0.0 mm 0.00 in0.0 mm
02:15 AM 14.9°F-9.5°C 11.7°F-11.3°C 87% 1.0 mph SE1.6 kmh SE 3.0 mph4.8 kmh 30.36 in1028.1 mb 0.00 in0.0 mm 0.00 in0.0 mm 0.00 in0.0 mm
02:19 AM 14.9°F-9.5°C 11.7°F-11.3°C 87% Calm Calm 1.0 mph1.6 kmh 30.36 in1028.1 mb 0.00 in0.0 mm 0.00 in0.0 mm 0.00 in0.0 mm
02:25 AM 15.0°F-9.4°C 11.8°F-11.2°C 87% Calm Calm -- 30.35 in1027.8 mb 0.00 in0.0 mm 0.00 in0.0 mm 0.00 in0.0 mm
02:30 AM 15.1°F-9.4°C 11.9°F-11.2°C 87% Calm Calm 1.0 mph1.6 kmh 30.36 in1028.1 mb 0.00 in0.0 mm 0.00 in0.0 mm 0.00 in0.0 mm
02:35 AM 15.2°F-9.3°C 12.0°F-11.1°C 87% Calm Calm 1.0 mph1.6 kmh 30.36 in1028.1 mb 0.00 in0.0 mm 0.00 in0.0 mm 0.00 in0.0 mm
02:39 AM 15.3°F-9.3°C 12.1°F-11.1°C 87% 1.0 mph SE1.6 kmh SE 1.0 mph1.6 kmh 30.35 in1027.8 mb 0.00 in0.0 mm 0.00 in0.0 mm 0.00 in0.0 mm
02:45 AM 15.3°F-9.3°C 12.1°F-11.1°C 87% Calm Calm 2.0 mph3.2 kmh 30.35 in1027.8 mb 0.00 in0.0 mm 0.00 in0.0 mm 0.00 in0.0 mm
02:50 AM 15.4°F-9.2°C 12.2°F-11.0°C 87% Calm Calm 2.0 mph3.2 kmh 30.35 in1027.8 mb 0.00 in0.0 mm 0.00 in0.0 mm 0.00 in0.0 mm
02:55 AM 15.5°F-9.2°C 12.3°F-10.9°C 87% Calm Calm 1.0 mph1.6 kmh 30.35 in1027.8 mb 0.00 in0.0 mm 0.00 in0.0 mm 0.00 in0.0 mm
03:00 AM 15.5°F-9.2°C 12.3°F-10.9°C 87% 2.0 mph ESE3.2 kmh ESE 3.0 mph4.8 kmh 30.35 in1027.8 mb 0.00 in0.0 mm 0.00 in0.0 mm 0.00 in0.0 mm
03:05 AM 15.7°F-9.1°C 12.5°F-10.8°C 87% Calm Calm 3.0 mph4.8 kmh 30.34 in1027.4 mb 0.00 in0.0 mm 0.00 in0.0 mm 0.00 in0.0 mm
03:10 AM 15.7°F-9.1°C 12.5°F-10.8°C 87% Calm Calm 2.0 mph3.2 kmh 30.34 in1027.4 mb 0.00 in0.0 mm 0.00 in0.0 mm 0.00 in0.0 mm
03:15 AM 15.8°F-9.0°C 12.6°F-10.8°C 87% Calm Calm 3.0 mph4.8 kmh 30.34 in1027.4 mb 0.00 in0.0 mm 0.00 in0.0 mm 0.00 in0.0 mm
03:20 AM 15.8°F-9.0°C 12.6°F-10.8°C 87% Calm Calm 5.0 mph8.0 kmh 30.34 in1027.4 mb 0.00 in0.0 mm 0.00 in0.0 mm 0.00 in0.0 mm
03:25 AM 15.9°F-8.9°C 12.7°F-10.7°C 87% Calm Calm 3.0 mph4.8 kmh 30.33 in1027.1 mb 0.00 in0.0 mm 0.00 in0.0 mm 0.00 in0.0 mm
03:29 AM 16.0°F-8.9°C 12.8°F-10.7°C 87% Calm Calm 1.0 mph1.6 kmh 30.33 in1027.1 mb 0.00 in0.0 mm 0.00 in0.0 mm 0.00 in0.0 mm
03:35 AM 16.1°F-8.8°C 12.9°F-10.6°C 87% Calm Calm 2.0 mph3.2 kmh 30.34 in1027.4 mb 0.00 in0.0 mm 0.00 in0.0 mm 0.00 in0.0 mm
03:40 AM 16.2°F-8.8°C 13.0°F-10.6°C 87% 1.0 mph E1.6 kmh E 3.0 mph4.8 kmh 30.34 in1027.4 mb 0.00 in0.0 mm 0.00 in0.0 mm 0.00 in0.0 mm
03:45 AM 16.3°F-8.7°C 13.1°F-10.5°C 87% Calm Calm 3.0 mph4.8 kmh 30.34 in1027.4 mb 0.00 in0.0 mm 0.00 in0.0 mm 0.00 in0.0 mm
03:50 AM 16.4°F-8.7°C 13.2°F-10.4°C 87% Calm Calm 3.0 mph4.8 kmh 30.34 in1027.4 mb 0.00 in0.0 mm 0.00 in0.0 mm 0.00 in0.0 mm
03:55 AM 16.4°F-8.7°C 13.2°F-10.4°C 87% Calm Calm 2.0 mph3.2 kmh 30.34 in1027.4 mb 0.00 in0.0 mm 0.00 in0.0 mm 0.00 in0.0 mm
04:00 AM 16.5°F-8.6°C 13.3°F-10.4°C 87% 1.0 mph SE1.6 kmh SE 3.0 mph4.8 kmh 30.34 in1027.4 mb 0.00 in0.0 mm 0.00 in0.0 mm 0.00 in0.0 mm
04:04 AM 16.5°F-8.6°C 13.3°F-10.4°C 87% 2.0 mph SE3.2 kmh SE 2.0 mph3.2 kmh 30.34 in1027.4 mb 0.00 in0.0 mm 0.00 in0.0 mm 0.00 in0.0 mm
04:10 AM 16.6°F-8.6°C 13.4°F-10.3°C 87% 1.0 mph SE1.6 kmh SE 3.0 mph4.8 kmh 30.33 in1027.1 mb 0.00 in0.0 mm 0.00 in0.0 mm 0.00 in0.0 mm
04:15 AM 16.6°F-8.6°C 13.4°F-10.3°C 87% 1.0 mph SE1.6 kmh SE 2.0 mph3.2 kmh 30.33 in1027.1 mb 0.00 in0.0 mm 0.00 in0.0 mm 0.00 in0.0 mm
04:20 AM 16.6°F-8.6°C 13.4°F-10.3°C 87% Calm Calm 2.0 mph3.2 kmh 30.33 in1027.1 mb 0.00 in0.0 mm 0.00 in0.0 mm 0.00 in0.0 mm
04:25 AM 16.7°F-8.5°C 13.5°F-10.3°C 87% 1.0 mph SE1.6 kmh SE 1.0 mph1.6 kmh 30.33 in1027.1 mb 0.00 in0.0 mm 0.00 in0.0 mm 0.00 in0.0 mm
04:30 AM 16.7°F-8.5°C 13.5°F-10.3°C 87% Calm Calm 1.0 mph1.6 kmh 30.33 in1027.1 mb 0.00 in0.0 mm 0.00 in0.0 mm 0.00 in0.0 mm
04:35 AM 16.8°F-8.4°C 13.6°F-10.2°C 87% 1.0 mph SE1.6 kmh SE 2.0 mph3.2 kmh 30.33 in1027.1 mb 0.00 in0.0 mm 0.00 in0.0 mm 0.00 in0.0 mm
04:40 AM 16.9°F-8.4°C 13.7°F-10.2°C 87% Calm Calm 4.0 mph6.4 kmh 30.33 in1027.1 mb 0.00 in0.0 mm 0.00 in0.0 mm 0.00 in0.0 mm
04:45 AM 16.9°F-8.4°C 13.7°F-10.2°C 87% Calm Calm 1.0 mph1.6 kmh 30.33 in1027.1 mb 0.00 in0.0 mm 0.00 in0.0 mm 0.00 in0.0 mm
04:50 AM 17.0°F-8.3°C 13.8°F-10.1°C 87% 1.0 mph E1.6 kmh E 1.0 mph1.6 kmh 30.33 in1027.1 mb 0.00 in0.0 mm 0.00 in0.0 mm 0.00 in0.0 mm
04:55 AM 17.0°F-8.3°C 13.8°F-10.1°C 87% Calm Calm 1.0 mph1.6 kmh 30.33 in1027.1 mb 0.00 in0.0 mm 0.00 in0.0 mm 0.00 in0.0 mm
05:00 AM 17.0°F-8.3°C 13.8°F-10.1°C 87% 1.0 mph SE1.6 kmh SE 2.0 mph3.2 kmh 30.32 in1026.8 mb 0.00 in0.0 mm 0.00 in0.0 mm 0.00 in0.0 mm
05:05 AM 17.0°F-8.3°C 13.8°F-10.1°C 87% Calm Calm 2.0 mph3.2 kmh 30.32 in1026.8 mb 0.00 in0.0 mm 0.00 in0.0 mm 0.00 in0.0 mm
05:10 AM 17.1°F-8.3°C 13.9°F-10.1°C 87% 1.0 mph SE1.6 kmh SE 1.0 mph1.6 kmh 30.32 in1026.8 mb 0.00 in0.0 mm 0.00 in0.0 mm 0.00 in0.0 mm
05:15 AM 17.1°F-8.3°C 13.9°F-10.1°C 87% Calm Calm 2.0 mph3.2 kmh 30.32 in1026.8 mb 0.00 in0.0 mm 0.00 in0.0 mm 0.00 in0.0 mm
05:20 AM 17.3°F-8.2°C 14.1°F-9.9°C 87% Calm Calm 2.0 mph3.2 kmh 30.32 in1026.8 mb 0.00 in0.0 mm 0.00 in0.0 mm 0.00 in0.0 mm
05:25 AM 17.4°F-8.1°C 14.2°F-9.9°C 87% Calm Calm 2.0 mph3.2 kmh 30.31 in1026.4 mb 0.00 in0.0 mm 0.00 in0.0 mm 0.00 in0.0 mm
05:29 AM 17.4°F-8.1°C 14.2°F-9.9°C 87% Calm Calm 3.0 mph4.8 kmh 30.31 in1026.4 mb 0.00 in0.0 mm 0.00 in0.0 mm 0.00 in0.0 mm
05:35 AM 17.5°F-8.1°C 14.6°F-9.7°C 88% Calm Calm -- 30.31 in1026.4 mb 0.00 in0.0 mm 0.00 in0.0 mm 0.00 in0.0 mm
05:40 AM 17.5°F-8.1°C 14.6°F-9.7°C 88% 1.0 mph SE1.6 kmh SE 2.0 mph3.2 kmh 30.31 in1026.4 mb 0.00 in0.0 mm 0.00 in0.0 mm 0.00 in0.0 mm
05:44 AM 17.5°F-8.1°C 14.6°F-9.7°C 88% Calm Calm 2.0 mph3.2 kmh 30.31 in1026.4 mb 0.00 in0.0 mm 0.00 in0.0 mm 0.00 in0.0 mm
05:49 AM 17.6°F-8.0°C 14.7°F-9.6°C 88% Calm Calm 2.0 mph3.2 kmh 30.30 in1026.1 mb 0.00 in0.0 mm 0.00 in0.0 mm 0.00 in0.0 mm
05:54 AM 17.5°F-8.1°C 14.6°F-9.7°C 88% 2.0 mph SE3.2 kmh SE 3.0 mph4.8 kmh 30.31 in1026.4 mb 0.00 in0.0 mm 0.00 in0.0 mm 0.00 in0.0 mm
05:59 AM 17.5°F-8.1°C 14.6°F-9.7°C 88% Calm Calm -- 30.30 in1026.1 mb 0.00 in0.0 mm 0.00 in0.0 mm 0.00 in0.0 mm
06:05 AM 17.5°F-8.1°C 14.6°F-9.7°C 88% 1.0 mph SE1.6 kmh SE 2.0 mph3.2 kmh 30.29 in1025.7 mb 0.00 in0.0 mm 0.00 in0.0 mm 0.00 in0.0 mm
06:10 AM 17.6°F-8.0°C 14.7°F-9.6°C 88% 1.0 mph SE1.6 kmh SE 3.0 mph4.8 kmh 30.29 in1025.7 mb 0.00 in0.0 mm 0.00 in0.0 mm 0.00 in0.0 mm
06:14 AM 17.5°F-8.1°C 14.6°F-9.7°C 88% 1.0 mph SE1.6 kmh SE 1.0 mph1.6 kmh 30.29 in1025.7 mb 0.00 in0.0 mm 0.00 in0.0 mm 0.00 in0.0 mm
06:19 AM 17.6°F-8.0°C 14.7°F-9.6°C 88% Calm Calm 3.0 mph4.8 kmh 30.30 in1026.1 mb 0.00 in0.0 mm 0.00 in0.0 mm 0.00 in0.0 mm
06:25 AM 17.5°F-8.1°C 14.6°F-9.7°C 88% Calm Calm 2.0 mph3.2 kmh 30.29 in1025.7 mb 0.00 in0.0 mm 0.00 in0.0 mm 0.00 in0.0 mm
06:30 AM 17.5°F-8.1°C 14.6°F-9.7°C 88% Calm Calm 4.0 mph6.4 kmh 30.30 in1026.1 mb 0.00 in0.0 mm 0.00 in0.0 mm 0.00 in0.0 mm
06:35 AM 17.6°F-8.0°C 14.7°F-9.6°C 88% Calm Calm -- 30.30 in1026.1 mb 0.00 in0.0 mm 0.00 in0.0 mm 0.00 in0.0 mm
06:40 AM 17.6°F-8.0°C 14.9°F-9.5°C 89% Calm Calm 2.0 mph3.2 kmh 30.30 in1026.1 mb 0.00 in0.0 mm 0.00 in0.0 mm 0.00 in0.0 mm
06:45 AM 17.7°F-7.9°C 15.0°F-9.4°C 89% Calm Calm -- 30.30 in1026.1 mb 0.00 in0.0 mm 0.00 in0.0 mm 0.00 in0.0 mm
06:50 AM 17.7°F-7.9°C 15.0°F-9.4°C 89% Calm Calm 2.0 mph3.2 kmh 30.31 in1026.4 mb 0.00 in0.0 mm 0.00 in0.0 mm 0.00 in0.0 mm
06:55 AM 17.8°F-7.9°C 15.1°F-9.4°C 89% Calm Calm -- 30.31 in1026.4 mb 0.00 in0.0 mm 0.00 in0.0 mm 0.00 in0.0 mm
07:00 AM 17.9°F-7.8°C 15.2°F-9.3°C 89% Calm Calm 2.0 mph3.2 kmh 30.31 in1026.4 mb 0.00 in0.0 mm 0.00 in0.0 mm 0.00 in0.0 mm
07:05 AM 17.9°F-7.8°C 15.2°F-9.3°C 89% Calm Calm 2.0 mph3.2 kmh 30.31 in1026.4 mb 0.00 in0.0 mm 0.00 in0.0 mm 0.00 in0.0 mm
07:10 AM 17.9°F-7.8°C 15.2°F-9.3°C 89% 2.0 mph SE3.2 kmh SE 2.0 mph3.2 kmh 30.32 in1026.8 mb 0.00 in0.0 mm 0.00 in0.0 mm 0.00 in0.0 mm
07:15 AM 17.8°F-7.9°C 14.9°F-9.5°C 88% 2.0 mph NE3.2 kmh NE 4.0 mph6.4 kmh 30.32 in1026.8 mb 0.00 in0.0 mm 0.00 in0.0 mm 0.00 in0.0 mm
07:20 AM 17.6°F-8.0°C 14.9°F-9.5°C 89% Calm Calm 1.0 mph1.6 kmh 30.32 in1026.8 mb 0.00 in0.0 mm 0.00 in0.0 mm 0.00 in0.0 mm
07:25 AM 17.6°F-8.0°C 14.9°F-9.5°C 89% Calm Calm 1.0 mph1.6 kmh 30.32 in1026.8 mb 0.00 in0.0 mm 0.00 in0.0 mm 0.00 in0.0 mm
07:30 AM 17.6°F-8.0°C 14.9°F-9.5°C 89% 1.0 mph NE1.6 kmh NE 2.0 mph3.2 kmh 30.32 in1026.8 mb 0.00 in0.0 mm 0.00 in0.0 mm 0.00 in0.0 mm
07:34 AM 17.6°F-8.0°C 14.9°F-9.5°C 89% Calm Calm 2.0 mph3.2 kmh 30.31 in1026.4 mb 0.00 in0.0 mm 0.00 in0.0 mm 0.00 in0.0 mm
07:40 AM 17.6°F-8.0°C 14.9°F-9.5°C 89% Calm Calm 2.0 mph3.2 kmh 30.31 in1026.4 mb 0.00 in0.0 mm 0.00 in0.0 mm 0.00 in0.0 mm
07:45 AM 17.5°F-8.1°C 14.8°F-9.6°C 89% Calm Calm 2.0 mph3.2 kmh 30.31 in1026.4 mb 0.00 in0.0 mm 0.00 in0.0 mm 0.00 in0.0 mm
07:50 AM 17.5°F-8.1°C 14.8°F-9.6°C 89% Calm Calm 2.0 mph3.2 kmh 30.31 in1026.4 mb 0.00 in0.0 mm 0.00 in0.0 mm 0.00 in0.0 mm
07:55 AM 17.5°F-8.1°C 14.8°F-9.6°C 89% 1.0 mph ENE1.6 kmh ENE 1.0 mph1.6 kmh 30.31 in1026.4 mb 0.00 in0.0 mm 0.00 in0.0 mm 0.00 in0.0 mm
08:00 AM 17.5°F-8.1°C 14.8°F-9.6°C 89% Calm Calm 2.0 mph3.2 kmh 30.31 in1026.4 mb 0.00 in0.0 mm 0.00 in0.0 mm 0.00 in0.0 mm
08:05 AM 17.5°F-8.1°C 14.8°F-9.6°C 89% Calm Calm 1.0 mph1.6 kmh 30.31 in1026.4 mb 0.00 in0.0 mm 0.00 in0.0 mm 0.00 in0.0 mm
08:10 AM 17.6°F-8.0°C 14.9°F-9.5°C 89% 1.0 mph ENE1.6 kmh ENE 1.0 mph1.6 kmh 30.32 in1026.8 mb 0.00 in0.0 mm 0.00 in0.0 mm 0.00 in0.0 mm
08:14 AM 17.6°F-8.0°C 14.9°F-9.5°C 89% Calm Calm 2.0 mph3.2 kmh 30.32 in1026.8 mb 0.00 in0.0 mm 0.00 in0.0 mm 0.00 in0.0 mm
08:20 AM 17.7°F-7.9°C 15.0°F-9.4°C 89% Calm Calm 1.0 mph1.6 kmh 30.32 in1026.8 mb 0.00 in0.0 mm 0.00 in0.0 mm 0.00 in0.0 mm
08:25 AM 17.8°F-7.9°C 15.1°F-9.4°C 89% Calm Calm 2.0 mph3.2 kmh 30.32 in1026.8 mb 0.00 in0.0 mm 0.00 in0.0 mm 0.00 in0.0 mm
08:30 AM 17.9°F-7.8°C 15.2°F-9.3°C 89% Calm Calm -- 30.32 in1026.8 mb 0.00 in0.0 mm 0.00 in0.0 mm 0.00 in0.0 mm
08:35 AM 18.0°F-7.8°C 15.3°F-9.3°C 89% Calm Calm 3.0 mph4.8 kmh 30.32 in1026.8 mb 0.00 in0.0 mm 0.00 in0.0 mm 0.00 in0.0 mm
08:39 AM 18.0°F-7.8°C 15.3°F-9.3°C 89% 1.0 mph E1.6 kmh E 1.0 mph1.6 kmh 30.32 in1026.8 mb 0.00 in0.0 mm 0.00 in0.0 mm 0.00 in0.0 mm
08:45 AM 18.0°F-7.8°C 15.3°F-9.3°C 89% Calm Calm -- 30.33 in1027.1 mb 0.00 in0.0 mm 0.00 in0.0 mm 0.00 in0.0 mm
08:50 AM 18.1°F-7.7°C 15.4°F-9.2°C 89% Calm Calm 1.0 mph1.6 kmh 30.33 in1027.1 mb 0.00 in0.0 mm 0.00 in0.0 mm 0.00 in0.0 mm
08:55 AM 18.1°F-7.7°C 15.4°F-9.2°C 89% Calm Calm -- 30.33 in1027.1 mb 0.00 in0.0 mm 0.00 in0.0 mm 0.00 in0.0 mm
09:00 AM 18.1°F-7.7°C 15.4°F-9.2°C 89% Calm Calm 1.0 mph1.6 kmh 30.33 in1027.1 mb 0.00 in0.0 mm 0.00 in0.0 mm 0.00 in0.0 mm
09:05 AM 18.2°F-7.7°C 15.5°F-9.2°C 89% Calm Calm 1.0 mph1.6 kmh 30.33 in1027.1 mb 0.00 in0.0 mm 0.00 in0.0 mm 0.00 in0.0 mm
09:10 AM 18.2°F-7.7°C 15.5°F-9.2°C 89% Calm Calm 1.0 mph1.6 kmh 30.34 in1027.4 mb 0.00 in0.0 mm 0.00 in0.0 mm 0.00 in0.0 mm
09:15 AM 18.2°F-7.7°C 15.5°F-9.2°C 89% Calm Calm 1.0 mph1.6 kmh 30.33 in1027.1 mb 0.00 in0.0 mm 0.00 in0.0 mm 0.00 in0.0 mm
09:20 AM 18.3°F-7.6°C 15.9°F-8.9°C 90% Calm Calm -- 30.34 in1027.4 mb 0.00 in0.0 mm 0.00 in0.0 mm 0.00 in0.0 mm
09:25 AM 18.4°F-7.6°C 15.7°F-9.1°C 89% Calm Calm -- 30.34 in1027.4 mb 0.00 in0.0 mm 0.00 in0.0 mm 0.00 in0.0 mm
09:30 AM 18.5°F-7.5°C 16.1°F-8.8°C 90% Calm Calm -- 30.34 in1027.4 mb 0.00 in0.0 mm 0.00 in0.0 mm 0.00 in0.0 mm
09:35 AM 18.5°F-7.5°C 16.1°F-8.8°C 90% Calm Calm 1.0 mph1.6 kmh 30.34 in1027.4 mb 0.00 in0.0 mm 0.00 in0.0 mm 0.00 in0.0 mm
09:39 AM 18.6°F-7.4°C 16.2°F-8.8°C 90% 1.0 mph E1.6 kmh E 2.0 mph3.2 kmh 30.35 in1027.8 mb 0.00 in0.0 mm 0.00 in0.0 mm 0.00 in0.0 mm
09:45 AM 18.6°F-7.4°C 16.2°F-8.8°C 90% Calm Calm 3.0 mph4.8 kmh 30.35 in1027.8 mb 0.00 in0.0 mm 0.00 in0.0 mm 0.00 in0.0 mm
09:50 AM 18.6°F-7.4°C 16.2°F-8.8°C 90% 1.0 mph E1.6 kmh E 1.0 mph1.6 kmh 30.35 in1027.8 mb 0.00 in0.0 mm 0.00 in0.0 mm 0.00 in0.0 mm
09:55 AM 18.7°F-7.4°C 16.3°F-8.7°C 90% 1.0 mph E1.6 kmh E 1.0 mph1.6 kmh 30.36 in1028.1 mb 0.00 in0.0 mm 0.00 in0.0 mm 0.00 in0.0 mm
10:00 AM 18.8°F-7.3°C 16.4°F-8.7°C 90% Calm Calm -- 30.35 in1027.8 mb 0.00 in0.0 mm 0.00 in0.0 mm 0.00 in0.0 mm
10:05 AM 18.9°F-7.3°C 16.5°F-8.6°C 90% Calm Calm 1.0 mph1.6 kmh 30.35 in1027.8 mb 0.00 in0.0 mm 0.00 in0.0 mm 0.00 in0.0 mm
10:10 AM 19.0°F-7.2°C 16.6°F-8.6°C 90% Calm Calm 2.0 mph3.2 kmh 30.36 in1028.1 mb 0.00 in0.0 mm 0.00 in0.0 mm 0.00 in0.0 mm
10:15 AM 19.1°F-7.2°C 16.7°F-8.5°C 90% Calm Calm -- 30.36 in1028.1 mb 0.00 in0.0 mm 0.00 in0.0 mm 0.00 in0.0 mm
10:20 AM 19.2°F-7.1°C 16.8°F-8.4°C 90% 1.0 mph E1.6 kmh E 1.0 mph1.6 kmh 30.36 in1028.1 mb 0.00 in0.0 mm 0.00 in0.0 mm 0.00 in0.0 mm
10:24 AM 19.3°F-7.1°C 16.9°F-8.4°C 90% Calm Calm 1.0 mph1.6 kmh 30.36 in1028.1 mb 0.00 in0.0 mm 0.00 in0.0 mm 0.00 in0.0 mm
10:30 AM 19.4°F-7.0°C 17.0°F-8.3°C 90% Calm Calm 1.0 mph1.6 kmh 30.36 in1028.1 mb 0.00 in0.0 mm 0.00 in0.0 mm 0.00 in0.0 mm
10:35 AM 19.5°F-6.9°C 17.1°F-8.3°C 90% 1.0 mph E1.6 kmh E 1.0 mph1.6 kmh 30.37 in1028.4 mb 0.00 in0.0 mm 0.00 in0.0 mm 0.00 in0.0 mm
10:40 AM 19.7°F-6.8°C 17.3°F-8.2°C 90% Calm Calm 1.0 mph1.6 kmh 30.37 in1028.4 mb 0.00 in0.0 mm 0.00 in0.0 mm 0.00 in0.0 mm
10:45 AM 19.7°F-6.8°C 17.3°F-8.2°C 90% 1.0 mph E1.6 kmh E 2.0 mph3.2 kmh 30.37 in1028.4 mb 0.00 in0.0 mm 0.00 in0.0 mm 0.00 in0.0 mm
10:50 AM 19.8°F-6.8°C 17.4°F-8.1°C 90% Calm Calm 1.0 mph1.6 kmh 30.37 in1028.4 mb 0.00 in0.0 mm 0.00 in0.0 mm 0.00 in0.0 mm
10:55 AM 19.9°F-6.7°C 17.5°F-8.1°C 90% 3.0 mph SSE4.8 kmh SSE 3.0 mph4.8 kmh 30.37 in1028.4 mb 0.00 in0.0 mm 0.00 in0.0 mm 0.00 in0.0 mm
11:00 AM 19.9°F-6.7°C 17.5°F-8.1°C 90% 2.0 mph SSE3.2 kmh SSE 2.0 mph3.2 kmh 30.37 in1028.4 mb 0.00 in0.0 mm 0.00 in0.0 mm 0.00 in0.0 mm
11:04 AM 20.0°F-6.7°C 17.3°F-8.2°C 89% Calm Calm 4.0 mph6.4 kmh 30.37 in1028.4 mb 0.00 in0.0 mm 0.00 in0.0 mm 0.00 in0.0 mm
11:09 AM 20.1°F-6.6°C 17.6°F-8.0°C 90% 2.0 mph SSE3.2 kmh SSE 3.0 mph4.8 kmh 30.37 in1028.4 mb 0.00 in0.0 mm 0.00 in0.0 mm 0.00 in0.0 mm
11:15 AM 20.2°F-6.6°C 17.7°F-7.9°C 90% Calm Calm 1.0 mph1.6 kmh 30.38 in1028.8 mb 0.00 in0.0 mm 0.00 in0.0 mm 0.00 in0.0 mm
11:20 AM 20.5°F-6.4°C 18.0°F-7.8°C 90% Calm Calm -- 30.38 in1028.8 mb 0.00 in0.0 mm 0.00 in0.0 mm 0.00 in0.0 mm
11:25 AM 20.7°F-6.3°C 18.2°F-7.7°C 90% Calm Calm 1.0 mph1.6 kmh 30.38 in1028.8 mb 0.00 in0.0 mm 0.00 in0.0 mm 0.00 in0.0 mm
11:30 AM 20.8°F-6.2°C 18.3°F-7.6°C 90% Calm Calm -- 30.38 in1028.8 mb 0.00 in0.0 mm 0.00 in0.0 mm 0.00 in0.0 mm
11:35 AM 21.1°F-6.1°C 18.6°F-7.4°C 90% Calm Calm -- 30.37 in1028.4 mb 0.00 in0.0 mm 0.00 in0.0 mm 0.00 in0.0 mm
11:40 AM 21.3°F-5.9°C 18.8°F-7.3°C 90% Calm Calm 2.0 mph3.2 kmh 30.37 in1028.4 mb 0.00 in0.0 mm 0.00 in0.0 mm 0.00 in0.0 mm
11:45 AM 21.5°F-5.8°C 19.0°F-7.2°C 90% 1.0 mph ENE1.6 kmh ENE 3.0 mph4.8 kmh 30.37 in1028.4 mb 0.00 in0.0 mm 0.00 in0.0 mm 0.00 in0.0 mm
11:50 AM 21.6°F-5.8°C 19.1°F-7.2°C 90% Calm Calm 3.0 mph4.8 kmh 30.37 in1028.4 mb 0.00 in0.0 mm 0.00 in0.0 mm 0.00 in0.0 mm
11:55 AM 21.8°F-5.7°C 19.1°F-7.2°C 89% 2.0 mph ENE3.2 kmh ENE 3.0 mph4.8 kmh 30.37 in1028.4 mb 0.00 in0.0 mm 0.00 in0.0 mm 0.00 in0.0 mm
12:00 PM 21.9°F-5.6°C 19.2°F-7.1°C 89% Calm Calm 2.0 mph3.2 kmh 30.37 in1028.4 mb 0.00 in0.0 mm 0.00 in0.0 mm 0.00 in0.0 mm
12:05 PM 22.0°F-5.6°C 19.3°F-7.1°C 89% Calm Calm -- 30.37 in1028.4 mb 0.00 in0.0 mm 0.00 in0.0 mm 0.00 in0.0 mm
12:10 PM 22.2°F-5.4°C 19.5°F-6.9°C 89% Calm Calm 3.0 mph4.8 kmh 30.37 in1028.4 mb 0.00 in0.0 mm 0.00 in0.0 mm 0.00 in0.0 mm
12:15 PM 22.2°F-5.4°C 19.5°F-6.9°C 89% Calm Calm 2.0 mph3.2 kmh 30.37 in1028.4 mb 0.00 in0.0 mm 0.00 in0.0 mm 0.00 in0.0 mm
12:20 PM 22.4°F-5.3°C 19.7°F-6.8°C 89% 1.0 mph SE1.6 kmh SE 1.0 mph1.6 kmh 30.37 in1028.4 mb 0.00 in0.0 mm 0.00 in0.0 mm 0.00 in0.0 mm
12:25 PM 22.4°F-5.3°C 19.4°F-7.0°C 88% Calm Calm 5.0 mph8.0 kmh 30.37 in1028.4 mb 0.00 in0.0 mm 0.00 in0.0 mm 0.00 in0.0 mm
12:29 PM 22.6°F-5.2°C 19.6°F-6.9°C 88% 1.0 mph SSE1.6 kmh SSE 2.0 mph3.2 kmh 30.37 in1028.4 mb 0.00 in0.0 mm 0.00 in0.0 mm 0.00 in0.0 mm
12:35 PM 22.9°F-5.1°C 20.2°F-6.6°C 89% Calm Calm -- 30.38 in1028.8 mb 0.00 in0.0 mm 0.00 in0.0 mm 0.00 in0.0 mm
12:40 PM 23.3°F-4.8°C 20.5°F-6.4°C 89% Calm Calm 2.0 mph3.2 kmh 30.38 in1028.8 mb 0.00 in0.0 mm 0.00 in0.0 mm 0.00 in0.0 mm
12:45 PM 23.3°F-4.8°C 20.3°F-6.5°C 88% Calm Calm 2.0 mph3.2 kmh 30.38 in1028.8 mb 0.00 in0.0 mm 0.00 in0.0 mm 0.00 in0.0 mm
12:50 PM 23.3°F-4.8°C 20.3°F-6.5°C 88% 2.0 mph SSE3.2 kmh SSE 4.0 mph6.4 kmh 30.38 in1028.8 mb 0.00 in0.0 mm 0.00 in0.0 mm 0.00 in0.0 mm
12:55 PM 23.2°F-4.9°C 20.2°F-6.6°C 88% Calm Calm 1.0 mph1.6 kmh 30.38 in1028.8 mb 0.00 in0.0 mm 0.00 in0.0 mm 0.00 in0.0 mm
01:00 PM 23.3°F-4.8°C 20.3°F-6.5°C 88% 1.0 mph SSE1.6 kmh SSE 1.0 mph1.6 kmh 30.37 in1028.4 mb 0.00 in0.0 mm 0.00 in0.0 mm 0.00 in0.0 mm
01:05 PM 23.8°F-4.6°C 20.8°F-6.2°C 88% 1.0 mph SE1.6 kmh SE 2.0 mph3.2 kmh 30.37 in1028.4 mb 0.00 in0.0 mm 0.00 in0.0 mm 0.00 in0.0 mm
01:10 PM 24.2°F-4.3°C 21.2°F-6.0°C 88% Calm Calm -- 30.38 in1028.8 mb 0.00 in0.0 mm 0.00 in0.0 mm 0.00 in0.0 mm
01:14 PM 24.5°F-4.2°C 21.5°F-5.8°C 88% Calm Calm 3.0 mph4.8 kmh 30.37 in1028.4 mb 0.00 in0.0 mm 0.00 in0.0 mm 0.00 in0.0 mm
01:20 PM 24.5°F-4.2°C 21.2°F-6.0°C 87% 2.0 mph SE3.2 kmh SE 3.0 mph4.8 kmh 30.37 in1028.4 mb 0.00 in0.0 mm 0.00 in0.0 mm 0.00 in0.0 mm
01:25 PM 24.7°F-4.1°C 21.4°F-5.9°C 87% 3.0 mph E4.8 kmh E 3.0 mph4.8 kmh 30.37 in1028.4 mb 0.00 in0.0 mm 0.00 in0.0 mm 0.00 in0.0 mm
01:29 PM 24.8°F-4.0°C 21.5°F-5.8°C 87% Calm Calm 1.0 mph1.6 kmh 30.38 in1028.8 mb 0.00 in0.0 mm 0.00 in0.0 mm 0.00 in0.0 mm
01:34 PM 25.1°F-3.8°C 21.8°F-5.7°C 87% Calm Calm 1.0 mph1.6 kmh 30.37 in1028.4 mb 0.00 in0.0 mm 0.00 in0.0 mm 0.00 in0.0 mm
01:40 PM 25.3°F-3.7°C 22.0°F-5.6°C 87% 1.0 mph ENE1.6 kmh ENE 3.0 mph4.8 kmh 30.37 in1028.4 mb 0.00 in0.0 mm 0.00 in0.0 mm 0.00 in0.0 mm
01:45 PM 25.2°F-3.8°C 21.6°F-5.8°C 86% Calm Calm 3.0 mph4.8 kmh 30.37 in1028.4 mb 0.00 in0.0 mm 0.00 in0.0 mm 0.00 in0.0 mm
01:50 PM 25.7°F-3.5°C 22.4°F-5.3°C 87% Calm Calm 2.0 mph3.2 kmh 30.36 in1028.1 mb 0.00 in0.0 mm 0.00 in0.0 mm 0.00 in0.0 mm
01:55 PM 26.1°F-3.3°C 22.8°F-5.1°C 87% 1.0 mph ENE1.6 kmh ENE 3.0 mph4.8 kmh 30.36 in1028.1 mb 0.00 in0.0 mm 0.00 in0.0 mm 0.00 in0.0 mm
02:00 PM 26.3°F-3.2°C 22.7°F-5.2°C 86% Calm Calm 3.0 mph4.8 kmh 30.36 in1028.1 mb 0.00 in0.0 mm 0.00 in0.0 mm 0.00 in0.0 mm
02:05 PM 26.5°F-3.1°C 22.9°F-5.1°C 86% Calm Calm 3.0 mph4.8 kmh 30.36 in1028.1 mb 0.00 in0.0 mm 0.00 in0.0 mm 0.00 in0.0 mm
02:10 PM 26.7°F-2.9°C 23.1°F-4.9°C 86% 2.0 mph E3.2 kmh E 2.0 mph3.2 kmh 30.36 in1028.1 mb 0.00 in0.0 mm 0.00 in0.0 mm 0.00 in0.0 mm
02:14 PM 26.4°F-3.1°C 22.5°F-5.3°C 85% 3.0 mph SSE4.8 kmh SSE 4.0 mph6.4 kmh 30.36 in1028.1 mb 0.00 in0.0 mm 0.00 in0.0 mm 0.00 in0.0 mm
02:20 PM 26.1°F-3.3°C 21.9°F-5.6°C 84% 1.0 mph SSE1.6 kmh SSE 5.0 mph8.0 kmh 30.36 in1028.1 mb 0.00 in0.0 mm 0.00 in0.0 mm 0.00 in0.0 mm
02:25 PM 26.2°F-3.2°C 22.3°F-5.4°C 85% 2.0 mph SSE3.2 kmh SSE 3.0 mph4.8 kmh 30.36 in1028.1 mb 0.00 in0.0 mm 0.00 in0.0 mm 0.00 in0.0 mm
02:30 PM 26.5°F-3.1°C 22.6°F-5.2°C 85% 1.0 mph SE1.6 kmh SE 2.0 mph3.2 kmh 30.36 in1028.1 mb 0.00 in0.0 mm 0.00 in0.0 mm 0.00 in0.0 mm
02:35 PM 26.8°F-2.9°C 22.9°F-5.1°C 85% Calm Calm 3.0 mph4.8 kmh 30.36 in1028.1 mb 0.00 in0.0 mm 0.00 in0.0 mm 0.00 in0.0 mm
02:40 PM 27.1°F-2.7°C 23.2°F-4.9°C 85% 1.0 mph SE1.6 kmh SE 2.0 mph3.2 kmh 30.36 in1028.1 mb 0.00 in0.0 mm 0.00 in0.0 mm 0.00 in0.0 mm
02:45 PM 27.4°F-2.6°C 23.5°F-4.7°C 85% Calm Calm 3.0 mph4.8 kmh 30.36 in1028.1 mb 0.00 in0.0 mm 0.00 in0.0 mm 0.00 in0.0 mm
02:50 PM 27.7°F-2.4°C 23.5°F-4.7°C 84% Calm Calm -- 30.36 in1028.1 mb 0.00 in0.0 mm 0.00 in0.0 mm 0.00 in0.0 mm
02:55 PM 27.7°F-2.4°C 23.5°F-4.7°C 84% 1.0 mph S1.6 kmh S 3.0 mph4.8 kmh 30.36 in1028.1 mb 0.00 in0.0 mm 0.00 in0.0 mm 0.00 in0.0 mm
03:00 PM 27.9°F-2.3°C 23.7°F-4.6°C 84% Calm Calm 2.0 mph3.2 kmh 30.35 in1027.8 mb 0.00 in0.0 mm 0.00 in0.0 mm 0.00 in0.0 mm
03:05 PM 28.4°F-2.0°C 24.2°F-4.3°C 84% 1.0 mph E1.6 kmh E 2.0 mph3.2 kmh 30.35 in1027.8 mb 0.01 in0.3 mm 0.12 in3.0 mm 0.01 in0.3 mm
03:10 PM 28.7°F-1.8°C 24.2°F-4.3°C 83% Calm Calm 2.0 mph3.2 kmh 30.35 in1027.8 mb 0.01 in0.3 mm 0.00 in0.0 mm 0.01 in0.3 mm
03:15 PM 28.7°F-1.8°C 23.9°F-4.5°C 82% Calm Calm 2.0 mph3.2 kmh 30.35 in1027.8 mb 0.02 in0.5 mm 0.12 in3.0 mm 0.02 in0.5 mm
03:20 PM 28.7°F-1.8°C 23.9°F-4.5°C 82% Calm Calm 2.0 mph3.2 kmh 30.35 in1027.8 mb 0.02 in0.5 mm 0.00 in0.0 mm 0.02 in0.5 mm
03:25 PM 28.8°F-1.8°C 24.0°F-4.4°C 82% Calm Calm 2.0 mph3.2 kmh 30.35 in1027.8 mb 0.02 in0.5 mm 0.00 in0.0 mm 0.02 in0.5 mm
03:30 PM 28.9°F-1.7°C 24.1°F-4.4°C 82% Calm Calm 2.0 mph3.2 kmh 30.35 in1027.8 mb 0.02 in0.5 mm 0.00 in0.0 mm 0.02 in0.5 mm
03:35 PM 29.0°F-1.7°C 24.2°F-4.3°C 82% Calm Calm -- 30.35 in1027.8 mb 0.03 in0.8 mm 0.12 in3.0 mm 0.03 in0.8 mm
03:40 PM 29.2°F-1.6°C 24.1°F-4.4°C 81% Calm Calm 2.0 mph3.2 kmh 30.35 in1027.8 mb 0.03 in0.8 mm 0.00 in0.0 mm 0.03 in0.8 mm
03:45 PM 29.3°F-1.5°C 24.5°F-4.2°C 82% 2.0 mph SE3.2 kmh SE 2.0 mph3.2 kmh 30.35 in1027.8 mb 0.03 in0.8 mm 0.00 in0.0 mm 0.03 in0.8 mm
03:49 PM 29.3°F-1.5°C 24.2°F-4.3°C 81% Calm Calm -- 30.35 in1027.8 mb 0.03 in0.8 mm 0.00 in0.0 mm 0.03 in0.8 mm
03:55 PM 29.4°F-1.4°C 24.3°F-4.3°C 81% 1.0 mph ESE1.6 kmh ESE 2.0 mph3.2 kmh 30.35 in1027.8 mb 0.04 in1.0 mm 0.10 in2.5 mm 0.04 in1.0 mm
03:59 PM 29.7°F-1.3°C 24.6°F-4.1°C 81% 3.0 mph SE4.8 kmh SE 3.0 mph4.8 kmh 30.35 in1027.8 mb 0.04 in1.0 mm 0.00 in0.0 mm 0.04 in1.0 mm
04:05 PM 29.6°F-1.3°C 24.5°F-4.2°C 81% Calm Calm 4.0 mph6.4 kmh 30.35 in1027.8 mb 0.03 in0.8 mm 0.00 in0.0 mm 0.04 in1.0 mm
04:10 PM 29.7°F-1.3°C 24.6°F-4.1°C 81% Calm Calm -- 30.35 in1027.8 mb 0.03 in0.8 mm 0.00 in0.0 mm 0.04 in1.0 mm
04:14 PM 29.6°F-1.3°C 24.2°F-4.3°C 80% Calm Calm -- 30.35 in1027.8 mb 0.03 in0.8 mm 0.00 in0.0 mm 0.04 in1.0 mm
04:20 PM 29.6°F-1.3°C 24.2°F-4.3°C 80% Calm Calm -- 30.35 in1027.8 mb 0.03 in0.8 mm 0.00 in0.0 mm 0.04 in1.0 mm
04:24 PM 29.7°F-1.3°C 24.3°F-4.3°C 80% Calm Calm -- 30.35 in1027.8 mb 0.03 in0.8 mm 0.00 in0.0 mm 0.04 in1.0 mm
04:29 PM 29.9°F-1.2°C 24.5°F-4.2°C 80% Calm Calm -- 30.35 in1027.8 mb 0.03 in0.8 mm 0.00 in0.0 mm 0.04 in1.0 mm
04:35 PM 29.6°F-1.3°C 24.2°F-4.3°C 80% 1.0 mph S1.6 kmh S 5.0 mph8.0 kmh 30.35 in1027.8 mb 0.03 in0.8 mm 0.00 in0.0 mm 0.04 in1.0 mm
04:40 PM 29.4°F-1.4°C 24.0°F-4.4°C 80% Calm Calm 5.0 mph8.0 kmh 30.35 in1027.8 mb 0.03 in0.8 mm 0.00 in0.0 mm 0.04 in1.0 mm
04:45 PM 29.4°F-1.4°C 24.3°F-4.3°C 81% Calm Calm -- 30.35 in1027.8 mb 0.03 in0.8 mm 0.00 in0.0 mm 0.04 in1.0 mm
04:50 PM 29.5°F-1.4°C 24.7°F-4.1°C 82% Calm Calm -- 30.36 in1028.1 mb 0.03 in0.8 mm 0.00 in0.0 mm 0.04 in1.0 mm
04:55 PM 29.8°F-1.2°C 24.7°F-4.1°C 81% Calm Calm -- 30.36 in1028.1 mb 0.03 in0.8 mm 0.00 in0.0 mm 0.04 in1.0 mm
05:00 PM 30.1°F-1.1°C 25.0°F-3.9°C 81% Calm Calm -- 30.35 in1027.8 mb 0.02 in0.5 mm 0.00 in0.0 mm 0.04 in1.0 mm
05:05 PM 30.2°F-1.0°C 25.1°F-3.8°C 81% Calm Calm -- 30.36 in1028.1 mb 0.02 in0.5 mm 0.00 in0.0 mm 0.04 in1.0 mm
05:10 PM 30.1°F-1.1°C 24.7°F-4.1°C 80% 1.0 mph SW1.6 kmh SW 5.0 mph8.0 kmh 30.35 in1027.8 mb 0.02 in0.5 mm 0.00 in0.0 mm 0.04 in1.0 mm
05:15 PM 30.0°F-1.1°C 24.6°F-4.1°C 80% Calm Calm 3.0 mph4.8 kmh 30.36 in1028.1 mb 0.03 in0.8 mm 0.12 in3.0 mm 0.05 in1.3 mm
05:20 PM 29.6°F-1.3°C 24.2°F-4.3°C 80% Calm Calm -- 30.36 in1028.1 mb 0.02 in0.5 mm 0.00 in0.0 mm 0.05 in1.3 mm
05:24 PM 29.4°F-1.4°C 24.0°F-4.4°C 80% Calm Calm -- 30.36 in1028.1 mb 0.02 in0.5 mm 0.00 in0.0 mm 0.05 in1.3 mm
05:30 PM 29.6°F-1.3°C 24.5°F-4.2°C 81% Calm Calm -- 30.36 in1028.1 mb 0.02 in0.5 mm 0.00 in0.0 mm 0.05 in1.3 mm
05:35 PM 29.8°F-1.2°C 24.7°F-4.1°C 81% Calm Calm -- 30.36 in1028.1 mb 0.02 in0.5 mm 0.00 in0.0 mm 0.05 in1.3 mm
05:40 PM 30.0°F-1.1°C 24.9°F-3.9°C 81% Calm Calm -- 30.36 in1028.1 mb 0.02 in0.5 mm 0.00 in0.0 mm 0.05 in1.3 mm
05:45 PM 30.1°F-1.1°C 24.7°F-4.1°C 80% Calm Calm -- 30.36 in1028.1 mb 0.01 in0.3 mm 0.00 in0.0 mm 0.05 in1.3 mm
05:50 PM 30.1°F-1.1°C 24.7°F-4.1°C 80% Calm Calm -- 30.36 in1028.1 mb 0.01 in0.3 mm 0.00 in0.0 mm 0.05 in1.3 mm
05:55 PM 30.2°F-1.0°C 24.8°F-4.0°C 80% Calm Calm -- 30.35 in1027.8 mb 0.01 in0.3 mm 0.00 in0.0 mm 0.05 in1.3 mm
06:00 PM 30.4°F-0.9°C 25.0°F-3.9°C 80% Calm Calm -- 30.35 in1027.8 mb 0.01 in0.3 mm 0.00 in0.0 mm 0.05 in1.3 mm
06:05 PM 30.4°F-0.9°C 24.7°F-4.1°C 79% Calm Calm -- 30.36 in1028.1 mb 0.02 in0.5 mm 0.12 in3.0 mm 0.06 in1.5 mm
06:10 PM 30.2°F-1.0°C 24.5°F-4.2°C 79% Calm Calm -- 30.36 in1028.1 mb 0.02 in0.5 mm 0.00 in0.0 mm 0.06 in1.5 mm
06:15 PM 30.1°F-1.1°C 24.7°F-4.1°C 80% Calm Calm -- 30.36 in1028.1 mb 0.02 in0.5 mm 0.00 in0.0 mm 0.06 in1.5 mm
06:20 PM 30.1°F-1.1°C 24.7°F-4.1°C 80% Calm Calm -- 30.36 in1028.1 mb 0.01 in0.3 mm 0.00 in0.0 mm 0.06 in1.5 mm
06:25 PM 30.1°F-1.1°C 24.7°F-4.1°C 80% Calm Calm -- 30.36 in1028.1 mb 0.01 in0.3 mm 0.00 in0.0 mm 0.06 in1.5 mm
06:30 PM 30.1°F-1.1°C 24.7°F-4.1°C 80% Calm Calm -- 30.36 in1028.1 mb 0.01 in0.3 mm 0.00 in0.0 mm 0.06 in1.5 mm
06:35 PM 29.9°F-1.2°C 24.5°F-4.2°C 80% Calm Calm -- 30.36 in1028.1 mb 0.01 in0.3 mm 0.00 in0.0 mm 0.06 in1.5 mm
06:40 PM 29.8°F-1.2°C 24.4°F-4.2°C 80% Calm Calm -- 30.36 in1028.1 mb 0.01 in0.3 mm 0.00 in0.0 mm 0.06 in1.5 mm
06:45 PM 29.7°F-1.3°C 24.3°F-4.3°C 80% Calm Calm -- 30.35 in1027.8 mb 0.01 in0.3 mm 0.00 in0.0 mm 0.06 in1.5 mm
06:50 PM 29.5°F-1.4°C 24.1°F-4.4°C 80% Calm Calm -- 30.35 in1027.8 mb 0.01 in0.3 mm 0.00 in0.0 mm 0.06 in1.5 mm
06:55 PM 29.3°F-1.5°C 24.2°F-4.3°C 81% Calm Calm -- 30.35 in1027.8 mb 0.01 in0.3 mm 0.00 in0.0 mm 0.06 in1.5 mm
07:00 PM 29.0°F-1.7°C 23.9°F-4.5°C 81% Calm Calm -- 30.36 in1028.1 mb 0.01 in0.3 mm 0.00 in0.0 mm 0.06 in1.5 mm
07:05 PM 28.8°F-1.8°C 23.7°F-4.6°C 81% Calm Calm 2.0 mph3.2 kmh 30.36 in1028.1 mb 0.00 in0.0 mm 0.00 in0.0 mm 0.06 in1.5 mm
07:10 PM 28.5°F-1.9°C 23.4°F-4.8°C 81% Calm Calm -- 30.36 in1028.1 mb 0.00 in0.0 mm 0.00 in0.0 mm 0.06 in1.5 mm
07:15 PM 28.3°F-2.1°C 23.5°F-4.7°C 82% Calm Calm -- 30.36 in1028.1 mb 0.00 in0.0 mm 0.00 in0.0 mm 0.06 in1.5 mm
07:19 PM 28.0°F-2.2°C 23.2°F-4.9°C 82% Calm Calm 1.0 mph1.6 kmh 30.35 in1027.8 mb 0.00 in0.0 mm 0.00 in0.0 mm 0.06 in1.5 mm
07:25 PM 27.8°F-2.3°C 23.0°F-5.0°C 82% Calm Calm -- 30.35 in1027.8 mb 0.00 in0.0 mm 0.00 in0.0 mm 0.06 in1.5 mm
07:29 PM 27.6°F-2.4°C 22.8°F-5.1°C 82% Calm Calm 1.0 mph1.6 kmh 30.36 in1028.1 mb 0.00 in0.0 mm 0.00 in0.0 mm 0.06 in1.5 mm
07:35 PM 27.4°F-2.6°C 22.9°F-5.1°C 83% Calm Calm 1.0 mph1.6 kmh 30.36 in1028.1 mb 0.00 in0.0 mm 0.00 in0.0 mm 0.06 in1.5 mm
07:39 PM 27.3°F-2.6°C 22.8°F-5.1°C 83% Calm Calm -- 30.36 in1028.1 mb 0.00 in0.0 mm 0.00 in0.0 mm 0.06 in1.5 mm
07:45 PM 27.1°F-2.7°C 22.6°F-5.2°C 83% Calm Calm -- 30.36 in1028.1 mb 0.00 in0.0 mm 0.00 in0.0 mm 0.06 in1.5 mm
07:50 PM 26.9°F-2.8°C 22.4°F-5.3°C 83% Calm Calm -- 30.36 in1028.1 mb 0.00 in0.0 mm 0.00 in0.0 mm 0.06 in1.5 mm
07:55 PM 26.8°F-2.9°C 22.3°F-5.4°C 83% Calm Calm -- 30.36 in1028.1 mb 0.00 in0.0 mm 0.00 in0.0 mm 0.06 in1.5 mm
08:00 PM 26.6°F-3.0°C 22.4°F-5.3°C 84% Calm Calm -- 30.36 in1028.1 mb 0.00 in0.0 mm 0.00 in0.0 mm 0.06 in1.5 mm
08:05 PM 26.4°F-3.1°C 22.2°F-5.4°C 84% Calm Calm -- 30.36 in1028.1 mb 0.00 in0.0 mm 0.00 in0.0 mm 0.06 in1.5 mm
08:10 PM 26.3°F-3.2°C 22.1°F-5.5°C 84% Calm Calm -- 30.36 in1028.1 mb 0.00 in0.0 mm 0.00 in0.0 mm 0.06 in1.5 mm
08:15 PM 26.1°F-3.3°C 21.9°F-5.6°C 84% Calm Calm -- 30.37 in1028.4 mb 0.00 in0.0 mm 0.00 in0.0 mm 0.06 in1.5 mm
08:20 PM 26.0°F-3.3°C 21.8°F-5.7°C 84% Calm Calm -- 30.37 in1028.4 mb 0.00 in0.0 mm 0.00 in0.0 mm 0.06 in1.5 mm
08:25 PM 25.8°F-3.4°C 21.6°F-5.8°C 84% Calm Calm -- 30.36 in1028.1 mb 0.00 in0.0 mm 0.00 in0.0 mm 0.06 in1.5 mm
08:30 PM 25.6°F-3.6°C 21.5°F-5.8°C 84% Calm Calm -- 30.36 in1028.1 mb 0.00 in0.0 mm 0.00 in0.0 mm 0.06 in1.5 mm
08:35 PM 25.4°F-3.7°C 21.3°F-5.9°C 84% Calm Calm -- 30.36 in1028.1 mb 0.00 in0.0 mm 0.00 in0.0 mm 0.06 in1.5 mm
08:40 PM 25.2°F-3.8°C 21.3°F-5.9°C 85% Calm Calm -- 30.36 in1028.1 mb 0.00 in0.0 mm 0.00 in0.0 mm 0.06 in1.5 mm
08:45 PM 25.1°F-3.8°C 21.2°F-6.0°C 85% Calm Calm -- 30.36 in1028.1 mb 0.00 in0.0 mm 0.00 in0.0 mm 0.06 in1.5 mm
08:49 PM 25.0°F-3.9°C 21.1°F-6.1°C 85% Calm Calm -- 30.36 in1028.1 mb 0.00 in0.0 mm 0.00 in0.0 mm 0.06 in1.5 mm
08:55 PM 24.9°F-3.9°C 21.0°F-6.1°C 85% Calm Calm -- 30.36 in1028.1 mb 0.00 in0.0 mm 0.00 in0.0 mm 0.06 in1.5 mm
09:00 PM 24.8°F-4.0°C 20.9°F-6.2°C 85% Calm Calm -- 30.36 in1028.1 mb 0.00 in0.0 mm 0.00 in0.0 mm 0.06 in1.5 mm
09:05 PM 24.7°F-4.1°C 21.1°F-6.1°C 86% Calm Calm -- 30.36 in1028.1 mb 0.00 in0.0 mm 0.00 in0.0 mm 0.06 in1.5 mm
09:09 PM 24.6°F-4.1°C 21.0°F-6.1°C 86% Calm Calm -- 30.36 in1028.1 mb 0.00 in0.0 mm 0.00 in0.0 mm 0.06 in1.5 mm
09:15 PM 24.5°F-4.2°C 20.9°F-6.2°C 86% Calm Calm -- 30.36 in1028.1 mb 0.00 in0.0 mm 0.00 in0.0 mm 0.06 in1.5 mm
09:20 PM 24.4°F-4.2°C 20.8°F-6.2°C 86% Calm Calm 2.0 mph3.2 kmh 30.36 in1028.1 mb 0.00 in0.0 mm 0.00 in0.0 mm 0.06 in1.5 mm
09:25 PM 24.4°F-4.2°C 20.8°F-6.2°C 86% Calm Calm -- 30.36 in1028.1 mb 0.00 in0.0 mm 0.00 in0.0 mm 0.06 in1.5 mm
09:30 PM 24.3°F-4.3°C 20.7°F-6.3°C 86% Calm Calm -- 30.37 in1028.4 mb 0.00 in0.0 mm 0.00 in0.0 mm 0.06 in1.5 mm
09:35 PM 24.2°F-4.3°C 20.6°F-6.3°C 86% Calm Calm -- 30.37 in1028.4 mb 0.00 in0.0 mm 0.00 in0.0 mm 0.06 in1.5 mm
09:40 PM 24.0°F-4.4°C 20.4°F-6.4°C 86% Calm Calm -- 30.37 in1028.4 mb 0.00 in0.0 mm 0.00 in0.0 mm 0.06 in1.5 mm
09:45 PM 23.9°F-4.5°C 20.3°F-6.5°C 86% Calm Calm -- 30.37 in1028.4 mb 0.00 in0.0 mm 0.00 in0.0 mm 0.06 in1.5 mm
09:50 PM 23.8°F-4.6°C 20.2°F-6.6°C 86% Calm Calm -- 30.37 in1028.4 mb 0.00 in0.0 mm 0.00 in0.0 mm 0.06 in1.5 mm
09:55 PM 23.7°F-4.6°C 20.1°F-6.6°C 86% Calm Calm -- 30.36 in1028.1 mb 0.00 in0.0 mm 0.00 in0.0 mm 0.06 in1.5 mm
10:00 PM 23.6°F-4.7°C 20.0°F-6.7°C 86% Calm Calm -- 30.36 in1028.1 mb 0.00 in0.0 mm 0.00 in0.0 mm 0.06 in1.5 mm
10:05 PM 23.5°F-4.7°C 20.2°F-6.6°C 87% Calm Calm -- 30.36 in1028.1 mb 0.00 in0.0 mm 0.00 in0.0 mm 0.06 in1.5 mm
10:10 PM 23.5°F-4.7°C 20.2°F-6.6°C 87% Calm Calm -- 30.36 in1028.1 mb 0.00 in0.0 mm 0.00 in0.0 mm 0.06 in1.5 mm
10:15 PM 23.4°F-4.8°C 20.1°F-6.6°C 87% Calm Calm -- 30.37 in1028.4 mb 0.00 in0.0 mm 0.00 in0.0 mm 0.06 in1.5 mm
10:20 PM 23.3°F-4.8°C 20.0°F-6.7°C 87% Calm Calm 1.0 mph1.6 kmh 30.37 in1028.4 mb 0.00 in0.0 mm 0.00 in0.0 mm 0.06 in1.5 mm
10:25 PM 23.3°F-4.8°C 20.0°F-6.7°C 87% Calm Calm -- 30.37 in1028.4 mb 0.00 in0.0 mm 0.00 in0.0 mm 0.06 in1.5 mm
10:29 PM 23.3°F-4.8°C 20.0°F-6.7°C 87% Calm Calm -- 30.36 in1028.1 mb 0.00 in0.0 mm 0.00 in0.0 mm 0.06 in1.5 mm
10:35 PM 23.1°F-4.9°C 19.8°F-6.8°C 87% Calm Calm -- 30.37 in1028.4 mb 0.00 in0.0 mm 0.00 in0.0 mm 0.06 in1.5 mm
10:40 PM 23.1°F-4.9°C 19.8°F-6.8°C 87% Calm Calm -- 30.37 in1028.4 mb 0.00 in0.0 mm 0.00 in0.0 mm 0.06 in1.5 mm
10:45 PM 23.0°F-5.0°C 19.7°F-6.8°C 87% Calm Calm -- 30.37 in1028.4 mb 0.00 in0.0 mm 0.00 in0.0 mm 0.06 in1.5 mm
10:50 PM 22.9°F-5.1°C 19.6°F-6.9°C 87% Calm Calm -- 30.37 in1028.4 mb 0.00 in0.0 mm 0.00 in0.0 mm 0.06 in1.5 mm
10:55 PM 22.7°F-5.2°C 19.4°F-7.0°C 87% Calm Calm -- 30.37 in1028.4 mb 0.00 in0.0 mm 0.00 in0.0 mm 0.06 in1.5 mm
11:00 PM 22.7°F-5.2°C 19.4°F-7.0°C 87% Calm Calm -- 30.37 in1028.4 mb 0.00 in0.0 mm 0.00 in0.0 mm 0.06 in1.5 mm
11:05 PM 22.6°F-5.2°C 19.3°F-7.1°C 87% Calm Calm -- 30.37 in1028.4 mb 0.00 in0.0 mm 0.00 in0.0 mm 0.06 in1.5 mm
11:10 PM 22.4°F-5.3°C 19.1°F-7.2°C 87% Calm Calm -- 30.37 in1028.4 mb 0.00 in0.0 mm 0.00 in0.0 mm 0.06 in1.5 mm
11:15 PM 22.3°F-5.4°C 19.0°F-7.2°C 87% Calm Calm -- 30.37 in1028.4 mb 0.00 in0.0 mm 0.00 in0.0 mm 0.06 in1.5 mm
11:20 PM 22.2°F-5.4°C 18.9°F-7.3°C 87% Calm Calm -- 30.37 in1028.4 mb 0.00 in0.0 mm 0.00 in0.0 mm 0.06 in1.5 mm
11:25 PM 22.2°F-5.4°C 18.9°F-7.3°C 87% Calm Calm -- 30.37 in1028.4 mb 0.00 in0.0 mm 0.00 in0.0 mm 0.06 in1.5 mm
11:30 PM 22.2°F-5.4°C 18.9°F-7.3°C 87% Calm Calm -- 30.37 in1028.4 mb 0.00 in0.0 mm 0.00 in0.0 mm 0.06 in1.5 mm
11:35 PM 22.1°F-5.5°C 18.8°F-7.3°C 87% Calm Calm -- 30.37 in1028.4 mb 0.00 in0.0 mm 0.00 in0.0 mm 0.06 in1.5 mm
11:40 PM 22.1°F-5.5°C 18.8°F-7.3°C 87% Calm Calm -- 30.37 in1028.4 mb 0.00 in0.0 mm 0.00 in0.0 mm 0.06 in1.5 mm
11:45 PM 22.0°F-5.6°C 18.7°F-7.4°C 87% Calm Calm -- 30.37 in1028.4 mb 0.00 in0.0 mm 0.00 in0.0 mm 0.06 in1.5 mm
11:50 PM 21.8°F-5.7°C 18.5°F-7.5°C 87% Calm Calm -- 30.37 in1028.4 mb 0.00 in0.0 mm 0.00 in0.0 mm 0.06 in1.5 mm
11:55 PM 21.6°F-5.8°C 18.3°F-7.6°C 87% Calm Calm -- 30.37 in1028.4 mb 0.00 in0.0 mm 0.00 in0.0 mm 0.06 in1.5 mm